sensor_id;sensor_type;location;lat;lon;timestamp;pressure;altitude;pressure_sealevel;temperature;humidity
70198;BME280;57582;-34.876;138.628;2023-03-16T00:01:44;100938;;;24.12;53.28
70198;BME280;57582;-34.876;138.628;2023-03-16T00:04:44;100937;;;24.21;53.44
70198;BME280;57582;-34.876;138.628;2023-03-16T00:07:44;100945;;;24.24;52.28
70198;BME280;57582;-34.876;138.628;2023-03-16T00:10:44;100938;;;24.17;51.54
70198;BME280;57582;-34.876;138.628;2023-03-16T00:13:44;100937;;;24.31;51.66
70198;BME280;57582;-34.876;138.628;2023-03-16T00:16:44;100939;;;24.52;51.10
70198;BME280;57582;-34.876;138.628;2023-03-16T00:19:44;100932;;;24.66;51.26
70198;BME280;57582;-34.876;138.628;2023-03-16T00:22:44;100928;;;24.64;51.39
70198;BME280;57582;-34.876;138.628;2023-03-16T00:25:44;100935;;;24.73;51.51
70198;BME280;57582;-34.876;138.628;2023-03-16T00:28:44;100941;;;24.64;51.73
70198;BME280;57582;-34.876;138.628;2023-03-16T00:31:44;100940;;;24.76;50.89
70198;BME280;57582;-34.876;138.628;2023-03-16T00:34:44;100935;;;24.97;50.81
70198;BME280;57582;-34.876;138.628;2023-03-16T00:37:44;100936;;;25.21;49.75
70198;BME280;57582;-34.876;138.628;2023-03-16T00:40:44;100933;;;25.24;49.18
70198;BME280;57582;-34.876;138.628;2023-03-16T00:43:44;100932;;;25.48;48.30
70198;BME280;57582;-34.876;138.628;2023-03-16T00:46:44;100935;;;25.45;48.82
70198;BME280;57582;-34.876;138.628;2023-03-16T00:49:44;100939;;;25.49;48.96
70198;BME280;57582;-34.876;138.628;2023-03-16T00:52:44;100928;;;25.64;48.67
70198;BME280;57582;-34.876;138.628;2023-03-16T00:55:44;100931;;;25.51;49.06
70198;BME280;57582;-34.876;138.628;2023-03-16T00:58:44;100924;;;25.45;49.26
70198;BME280;57582;-34.876;138.628;2023-03-16T01:01:44;100921;;;25.52;49.64
70198;BME280;57582;-34.876;138.628;2023-03-16T01:04:44;100926;;;25.66;48.96
70198;BME280;57582;-34.876;138.628;2023-03-16T01:07:44;100927;;;25.68;48.96
70198;BME280;57582;-34.876;138.628;2023-03-16T01:10:44;100890;;;25.69;48.59
70198;BME280;57582;-34.876;138.628;2023-03-16T01:13:45;100923;;;25.96;48.42
70198;BME280;57582;-34.876;138.628;2023-03-16T01:16:44;100924;;;26.10;47.91
70198;BME280;57582;-34.876;138.628;2023-03-16T01:19:44;100931;;;26.31;47.24
70198;BME280;57582;-34.876;138.628;2023-03-16T01:22:44;100925;;;26.47;46.51
70198;BME280;57582;-34.876;138.628;2023-03-16T01:25:44;100923;;;26.48;46.70
70198;BME280;57582;-34.876;138.628;2023-03-16T01:28:45;100925;;;26.34;47.54
70198;BME280;57582;-34.876;138.628;2023-03-16T01:31:44;100921;;;26.01;48.79
70198;BME280;57582;-34.876;138.628;2023-03-16T01:34:44;100926;;;26.16;47.93
70198;BME280;57582;-34.876;138.628;2023-03-16T01:37:44;100929;;;26.16;47.95
70198;BME280;57582;-34.876;138.628;2023-03-16T01:40:44;100932;;;26.01;48.68
70198;BME280;57582;-34.876;138.628;2023-03-16T01:43:44;100910;;;26.18;48.84
70198;BME280;57582;-34.876;138.628;2023-03-16T01:46:44;100920;;;26.38;47.51
70198;BME280;57582;-34.876;138.628;2023-03-16T01:49:44;100906;;;26.51;47.22
70198;BME280;57582;-34.876;138.628;2023-03-16T01:52:45;100889;;;26.27;47.61
70198;BME280;57582;-34.876;138.628;2023-03-16T01:55:44;100887;;;26.61;45.62
70198;BME280;57582;-34.876;138.628;2023-03-16T01:58:44;100880;;;26.89;45.40
70198;BME280;57582;-34.876;138.628;2023-03-16T02:01:45;100874;;;26.80;45.29
70198;BME280;57582;-34.876;138.628;2023-03-16T02:07:48;100869;;;27.04;44.39
70198;BME280;57582;-34.876;138.628;2023-03-16T02:10:44;100871;;;27.20;43.75
70198;BME280;57582;-34.876;138.628;2023-03-16T02:13:44;100864;;;27.31;42.56
70198;BME280;57582;-34.876;138.628;2023-03-16T02:16:44;100858;;;27.63;41.65
70198;BME280;57582;-34.876;138.628;2023-03-16T02:20:03;100852;;;27.77;41.02
70198;BME280;57582;-34.876;138.628;2023-03-16T02:22:45;100861;;;27.83;40.98
70198;BME280;57582;-34.876;138.628;2023-03-16T02:25:47;100843;;;27.84;41.44
70198;BME280;57582;-34.876;138.628;2023-03-16T02:31:44;100856;;;27.80;41.63
70198;BME280;57582;-34.876;138.628;2023-03-16T02:34:44;100863;;;27.84;41.66
70198;BME280;57582;-34.876;138.628;2023-03-16T02:37:44;100850;;;27.73;42.16
70198;BME280;57582;-34.876;138.628;2023-03-16T02:40:45;100852;;;27.61;42.48
70198;BME280;57582;-34.876;138.628;2023-03-16T02:43:49;100852;;;27.64;43.18
70198;BME280;57582;-34.876;138.628;2023-03-16T02:46:44;100853;;;27.75;42.58
70198;BME280;57582;-34.876;138.628;2023-03-16T02:49:44;100859;;;27.32;44.26
70198;BME280;57582;-34.876;138.628;2023-03-16T02:52:44;100859;;;27.58;44.04
70198;BME280;57582;-34.876;138.628;2023-03-16T02:55:44;100854;;;27.77;43.17
70198;BME280;57582;-34.876;138.628;2023-03-16T02:58:44;100866;;;27.76;43.26
70198;BME280;57582;-34.876;138.628;2023-03-16T03:01:44;100857;;;27.74;43.13
70198;BME280;57582;-34.876;138.628;2023-03-16T03:04:45;100859;;;27.42;44.13
70198;BME280;57582;-34.876;138.628;2023-03-16T03:07:44;100866;;;27.78;43.54
70198;BME280;57582;-34.876;138.628;2023-03-16T03:10:44;100858;;;28.03;42.67
70198;BME280;57582;-34.876;138.628;2023-03-16T03:13:45;100857;;;28.09;42.78
70198;BME280;57582;-34.876;138.628;2023-03-16T03:16:44;100857;;;27.87;42.98
70198;BME280;57582;-34.876;138.628;2023-03-16T03:19:44;100854;;;27.97;42.92
70198;BME280;57582;-34.876;138.628;2023-03-16T03:22:45;100856;;;28.10;42.58
70198;BME280;57582;-34.876;138.628;2023-03-16T03:25:44;100858;;;28.25;42.08
70198;BME280;57582;-34.876;138.628;2023-03-16T03:28:45;100872;;;28.27;41.97
70198;BME280;57582;-34.876;138.628;2023-03-16T03:31:44;100864;;;28.25;41.68
70198;BME280;57582;-34.876;138.628;2023-03-16T03:34:44;100849;;;28.18;41.99
70198;BME280;57582;-34.876;138.628;2023-03-16T03:37:44;100859;;;27.97;42.89
70198;BME280;57582;-34.876;138.628;2023-03-16T03:40:44;100863;;;28.04;42.73
70198;BME280;57582;-34.876;138.628;2023-03-16T03:43:44;100856;;;28.29;42.46
70198;BME280;57582;-34.876;138.628;2023-03-16T03:46:44;100858;;;28.48;41.80
70198;BME280;57582;-34.876;138.628;2023-03-16T03:49:44;100847;;;28.45;41.83
70198;BME280;57582;-34.876;138.628;2023-03-16T03:52:44;100838;;;28.63;41.36
70198;BME280;57582;-34.876;138.628;2023-03-16T03:55:44;100843;;;28.79;41.43
70198;BME280;57582;-34.876;138.628;2023-03-16T03:58:44;100846;;;28.93;41.30
70198;BME280;57582;-34.876;138.628;2023-03-16T04:01:45;100849;;;28.78;40.99
70198;BME280;57582;-34.876;138.628;2023-03-16T04:04:44;100844;;;28.80;41.04
70198;BME280;57582;-34.876;138.628;2023-03-16T04:07:44;100854;;;28.79;41.17
70198;BME280;57582;-34.876;138.628;2023-03-16T04:10:44;100840;;;28.74;41.13
70198;BME280;57582;-34.876;138.628;2023-03-16T04:13:44;100836;;;28.62;41.51
70198;BME280;57582;-34.876;138.628;2023-03-16T04:16:44;100827;;;28.53;41.88
70198;BME280;57582;-34.876;138.628;2023-03-16T04:19:44;100823;;;28.54;41.50
70198;BME280;57582;-34.876;138.628;2023-03-16T04:22:45;100823;;;28.56;41.61
70198;BME280;57582;-34.876;138.628;2023-03-16T04:25:45;100834;;;28.69;41.30
70198;BME280;57582;-34.876;138.628;2023-03-16T04:28:44;100829;;;28.51;41.65
70198;BME280;57582;-34.876;138.628;2023-03-16T04:31:44;100799;;;28.65;41.60
70198;BME280;57582;-34.876;138.628;2023-03-16T04:34:44;100813;;;28.95;41.10
70198;BME280;57582;-34.876;138.628;2023-03-16T04:37:44;100812;;;28.88;40.60
70198;BME280;57582;-34.876;138.628;2023-03-16T04:40:44;100803;;;28.77;40.65
70198;BME280;57582;-34.876;138.628;2023-03-16T04:43:44;100796;;;28.88;40.58
70198;BME280;57582;-34.876;138.628;2023-03-16T04:46:44;100774;;;28.88;40.57
70198;BME280;57582;-34.876;138.628;2023-03-16T04:49:45;100804;;;29.00;40.55
70198;BME280;57582;-34.876;138.628;2023-03-16T04:52:45;100792;;;29.02;40.29
70198;BME280;57582;-34.876;138.628;2023-03-16T04:55:44;100787;;;29.06;40.56
70198;BME280;57582;-34.876;138.628;2023-03-16T04:58:48;100793;;;28.92;40.57
70198;BME280;57582;-34.876;138.628;2023-03-16T05:01:44;100783;;;28.75;40.59
70198;BME280;57582;-34.876;138.628;2023-03-16T05:04:44;100775;;;28.89;40.53
70198;BME280;57582;-34.876;138.628;2023-03-16T05:07:44;100784;;;29.04;40.49
70198;BME280;57582;-34.876;138.628;2023-03-16T05:10:44;100781;;;29.18;39.77
70198;BME280;57582;-34.876;138.628;2023-03-16T05:13:44;100779;;;29.38;39.47
70198;BME280;57582;-34.876;138.628;2023-03-16T05:16:45;100779;;;29.59;39.52
70198;BME280;57582;-34.876;138.628;2023-03-16T05:19:44;100772;;;29.70;39.37
70198;BME280;57582;-34.876;138.628;2023-03-16T05:22:44;100769;;;29.83;38.80
70198;BME280;57582;-34.876;138.628;2023-03-16T05:25:46;100777;;;29.96;38.25
70198;BME280;57582;-34.876;138.628;2023-03-16T05:28:44;100775;;;29.71;38.79
70198;BME280;57582;-34.876;138.628;2023-03-16T05:31:44;100783;;;29.58;38.68
70198;BME280;57582;-34.876;138.628;2023-03-16T05:34:44;100780;;;29.59;39.23
70198;BME280;57582;-34.876;138.628;2023-03-16T05:37:44;100779;;;29.38;39.10
70198;BME280;57582;-34.876;138.628;2023-03-16T05:40:44;100776;;;29.38;39.19
70198;BME280;57582;-34.876;138.628;2023-03-16T05:43:44;100778;;;29.31;39.58
70198;BME280;57582;-34.876;138.628;2023-03-16T05:46:44;100770;;;29.47;39.31
70198;BME280;57582;-34.876;138.628;2023-03-16T05:49:44;100783;;;29.45;39.23
70198;BME280;57582;-34.876;138.628;2023-03-16T05:52:45;100767;;;29.03;40.10
70198;BME280;57582;-34.876;138.628;2023-03-16T05:55:44;100775;;;29.26;40.27
70198;BME280;57582;-34.876;138.628;2023-03-16T05:58:44;100772;;;29.43;39.65
70198;BME280;57582;-34.876;138.628;2023-03-16T06:01:44;100771;;;29.51;39.44
70198;BME280;57582;-34.876;138.628;2023-03-16T06:04:45;100777;;;29.59;39.53
70198;BME280;57582;-34.876;138.628;2023-03-16T06:07:44;100770;;;29.74;39.37
70198;BME280;57582;-34.876;138.628;2023-03-16T06:10:46;100771;;;29.69;39.06
70198;BME280;57582;-34.876;138.628;2023-03-16T06:13:45;100770;;;29.60;39.45
70198;BME280;57582;-34.876;138.628;2023-03-16T06:16:45;100772;;;29.65;39.55
70198;BME280;57582;-34.876;138.628;2023-03-16T06:19:44;100771;;;29.64;39.51
70198;BME280;57582;-34.876;138.628;2023-03-16T06:22:44;100774;;;29.56;39.64
70198;BME280;57582;-34.876;138.628;2023-03-16T06:25:46;100773;;;29.49;40.10
70198;BME280;57582;-34.876;138.628;2023-03-16T06:28:44;100787;;;29.22;40.63
70198;BME280;57582;-34.876;138.628;2023-03-16T06:31:44;100790;;;29.20;40.72
70198;BME280;57582;-34.876;138.628;2023-03-16T06:34:44;100792;;;29.06;41.09
70198;BME280;57582;-34.876;138.628;2023-03-16T06:37:45;100796;;;29.05;41.31
70198;BME280;57582;-34.876;138.628;2023-03-16T06:40:45;100796;;;29.05;41.66
70198;BME280;57582;-34.876;138.628;2023-03-16T06:43:44;100797;;;29.02;41.72
70198;BME280;57582;-34.876;138.628;2023-03-16T06:46:44;100800;;;29.04;42.08
70198;BME280;57582;-34.876;138.628;2023-03-16T06:49:45;100808;;;29.00;42.08
70198;BME280;57582;-34.876;138.628;2023-03-16T06:52:45;100805;;;28.95;41.96
70198;BME280;57582;-34.876;138.628;2023-03-16T06:55:44;100810;;;28.84;41.92
70198;BME280;57582;-34.876;138.628;2023-03-16T06:58:44;100819;;;28.69;41.90
70198;BME280;57582;-34.876;138.628;2023-03-16T07:01:45;100823;;;28.54;41.94
70198;BME280;57582;-34.876;138.628;2023-03-16T07:04:45;100823;;;28.37;41.65
70198;BME280;57582;-34.876;138.628;2023-03-16T07:07:44;100828;;;28.20;41.27
70198;BME280;57582;-34.876;138.628;2023-03-16T07:10:44;100823;;;28.00;42.30
70198;BME280;57582;-34.876;138.628;2023-03-16T07:13:45;100826;;;27.74;43.29
70198;BME280;57582;-34.876;138.628;2023-03-16T07:16:45;100835;;;27.69;43.30
70198;BME280;57582;-34.876;138.628;2023-03-16T07:19:44;100836;;;27.58;42.98
70198;BME280;57582;-34.876;138.628;2023-03-16T07:22:44;100830;;;27.51;42.90
70198;BME280;57582;-34.876;138.628;2023-03-16T07:25:45;100833;;;27.42;43.15
70198;BME280;57582;-34.876;138.628;2023-03-16T07:28:45;100847;;;27.47;42.86
70198;BME280;57582;-34.876;138.628;2023-03-16T07:31:44;100843;;;27.53;42.87
70198;BME280;57582;-34.876;138.628;2023-03-16T07:34:44;100845;;;27.56;42.21
70198;BME280;57582;-34.876;138.628;2023-03-16T07:37:45;100839;;;27.56;42.22
70198;BME280;57582;-34.876;138.628;2023-03-16T07:40:45;100850;;;27.43;42.44
70198;BME280;57582;-34.876;138.628;2023-03-16T07:43:44;100847;;;27.36;42.54
70198;BME280;57582;-34.876;138.628;2023-03-16T07:46:44;100824;;;27.17;42.75
70198;BME280;57582;-34.876;138.628;2023-03-16T07:49:45;100847;;;27.26;42.87
70198;BME280;57582;-34.876;138.628;2023-03-16T07:52:45;100850;;;27.29;42.42
70198;BME280;57582;-34.876;138.628;2023-03-16T07:55:45;100848;;;27.03;42.57
70198;BME280;57582;-34.876;138.628;2023-03-16T07:58:44;100851;;;26.94;42.57
70198;BME280;57582;-34.876;138.628;2023-03-16T08:01:45;100859;;;26.91;42.85
70198;BME280;57582;-34.876;138.628;2023-03-16T08:04:45;100855;;;26.65;43.24
70198;BME280;57582;-34.876;138.628;2023-03-16T08:07:44;100871;;;26.45;43.76
70198;BME280;57582;-34.876;138.628;2023-03-16T08:10:46;100876;;;26.29;44.19
70198;BME280;57582;-34.876;138.628;2023-03-16T08:13:45;100887;;;26.28;44.33
70198;BME280;57582;-34.876;138.628;2023-03-16T08:16:45;100887;;;26.21;44.44
70198;BME280;57582;-34.876;138.628;2023-03-16T08:19:44;100886;;;26.15;44.85
70198;BME280;57582;-34.876;138.628;2023-03-16T08:22:44;100884;;;26.13;45.00
70198;BME280;57582;-34.876;138.628;2023-03-16T08:25:45;100889;;;26.05;44.89
70198;BME280;57582;-34.876;138.628;2023-03-16T08:28:45;100891;;;25.90;45.51
70198;BME280;57582;-34.876;138.628;2023-03-16T08:31:44;100884;;;25.92;45.42
70198;BME280;57582;-34.876;138.628;2023-03-16T08:34:44;100886;;;25.81;45.78
70198;BME280;57582;-34.876;138.628;2023-03-16T08:37:45;100888;;;25.82;45.72
70198;BME280;57582;-34.876;138.628;2023-03-16T08:40:45;100895;;;25.74;45.85
70198;BME280;57582;-34.876;138.628;2023-03-16T08:43:44;100896;;;25.71;45.90
70198;BME280;57582;-34.876;138.628;2023-03-16T08:46:44;100900;;;25.55;46.26
70198;BME280;57582;-34.876;138.628;2023-03-16T08:49:45;100904;;;25.38;46.91
70198;BME280;57582;-34.876;138.628;2023-03-16T08:52:46;100905;;;25.32;46.98
70198;BME280;57582;-34.876;138.628;2023-03-16T08:55:45;100897;;;25.33;46.88
70198;BME280;57582;-34.876;138.628;2023-03-16T08:58:44;100906;;;25.39;46.80
70198;BME280;57582;-34.876;138.628;2023-03-16T09:01:45;100905;;;25.40;46.67
70198;BME280;57582;-34.876;138.628;2023-03-16T09:04:45;100906;;;25.29;46.93
70198;BME280;57582;-34.876;138.628;2023-03-16T09:07:44;100915;;;25.33;47.03
70198;BME280;57582;-34.876;138.628;2023-03-16T09:10:44;100912;;;25.28;47.14
70198;BME280;57582;-34.876;138.628;2023-03-16T09:13:45;100899;;;25.28;47.12
70198;BME280;57582;-34.876;138.628;2023-03-16T09:16:45;100901;;;24.91;48.24
70198;BME280;57582;-34.876;138.628;2023-03-16T09:19:45;100919;;;24.90;48.29
70198;BME280;57582;-34.876;138.628;2023-03-16T09:22:45;100906;;;24.82;48.41
70198;BME280;57582;-34.876;138.628;2023-03-16T09:25:45;100914;;;24.77;48.21
70198;BME280;57582;-34.876;138.628;2023-03-16T09:28:46;100912;;;24.73;48.42
70198;BME280;57582;-34.876;138.628;2023-03-16T09:31:45;100916;;;24.80;48.32
70198;BME280;57582;-34.876;138.628;2023-03-16T09:34:45;100909;;;24.79;48.47
70198;BME280;57582;-34.876;138.628;2023-03-16T09:37:45;100919;;;24.94;48.34
70198;BME280;57582;-34.876;138.628;2023-03-16T09:40:46;100914;;;24.96;48.25
70198;BME280;57582;-34.876;138.628;2023-03-16T09:43:49;100915;;;24.94;48.89
70198;BME280;57582;-34.876;138.628;2023-03-16T09:46:45;100913;;;24.97;49.26
70198;BME280;57582;-34.876;138.628;2023-03-16T09:49:46;100925;;;25.07;49.49
70198;BME280;57582;-34.876;138.628;2023-03-16T09:55:45;100952;;;25.40;48.47
70198;BME280;57582;-34.876;138.628;2023-03-16T09:58:45;100959;;;25.54;48.10
70198;BME280;57582;-34.876;138.628;2023-03-16T10:01:49;100960;;;25.54;48.22
70198;BME280;57582;-34.876;138.628;2023-03-16T10:19:53;100977;;;25.20;50.76
70198;BME280;57582;-34.876;138.628;2023-03-16T10:22:45;100986;;;25.04;51.62
70198;BME280;57582;-34.876;138.628;2023-03-16T10:25:47;100984;;;24.83;52.54
70198;BME280;57582;-34.876;138.628;2023-03-16T10:28:45;100997;;;24.81;52.81
70198;BME280;57582;-34.876;138.628;2023-03-16T10:31:45;101009;;;24.76;53.02
70198;BME280;57582;-34.876;138.628;2023-03-16T10:34:47;101005;;;24.75;53.46
70198;BME280;57582;-34.876;138.628;2023-03-16T10:37:45;101012;;;24.80;53.46
70198;BME280;57582;-34.876;138.628;2023-03-16T10:40:45;101002;;;24.79;53.68
70198;BME280;57582;-34.876;138.628;2023-03-16T10:43:45;101009;;;24.84;53.51
70198;BME280;57582;-34.876;138.628;2023-03-16T10:46:46;101012;;;24.88;53.54
70198;BME280;57582;-34.876;138.628;2023-03-16T10:49:45;101016;;;24.94;53.66
70198;BME280;57582;-34.876;138.628;2023-03-16T10:52:45;101009;;;24.98;53.81
70198;BME280;57582;-34.876;138.628;2023-03-16T10:55:45;101005;;;24.99;53.78
70198;BME280;57582;-34.876;138.628;2023-03-16T10:58:45;101017;;;24.88;53.89
70198;BME280;57582;-34.876;138.628;2023-03-16T11:01:46;101017;;;24.96;53.92
70198;BME280;57582;-34.876;138.628;2023-03-16T11:04:45;101010;;;25.02;53.50
70198;BME280;57582;-34.876;138.628;2023-03-16T11:07:47;101001;;;24.98;53.60
70198;BME280;57582;-34.876;138.628;2023-03-16T11:10:45;101016;;;24.94;53.20
70198;BME280;57582;-34.876;138.628;2023-03-16T11:13:46;101017;;;24.93;53.88
70198;BME280;57582;-34.876;138.628;2023-03-16T11:16:46;101015;;;24.95;53.72
70198;BME280;57582;-34.876;138.628;2023-03-16T11:19:49;101016;;;25.02;54.00
70198;BME280;57582;-34.876;138.628;2023-03-16T11:22:45;101024;;;25.00;53.71
70198;BME280;57582;-34.876;138.628;2023-03-16T11:25:46;101028;;;24.93;53.56
70198;BME280;57582;-34.876;138.628;2023-03-16T11:28:46;101037;;;24.95;53.94
70198;BME280;57582;-34.876;138.628;2023-03-16T11:31:47;101036;;;25.01;54.10
70198;BME280;57582;-34.876;138.628;2023-03-16T11:34:45;101036;;;25.01;54.21
70198;BME280;57582;-34.876;138.628;2023-03-16T11:46:51;101045;;;25.20;53.71
70198;BME280;57582;-34.876;138.628;2023-03-16T11:58:54;101074;;;25.26;54.37
70198;BME280;57582;-34.876;138.628;2023-03-16T12:07:53;101074;;;25.41;54.03
70198;BME280;57582;-34.876;138.628;2023-03-16T12:10:47;101072;;;25.41;54.11
70198;BME280;57582;-34.876;138.628;2023-03-16T12:22:47;101061;;;25.18;54.90
70198;BME280;57582;-34.876;138.628;2023-03-16T12:25:45;101071;;;25.19;55.28
70198;BME280;57582;-34.876;138.628;2023-03-16T12:28:45;101064;;;25.14;55.50
70198;BME280;57582;-34.876;138.628;2023-03-16T12:31:48;101064;;;25.11;55.64
70198;BME280;57582;-34.876;138.628;2023-03-16T12:37:50;101062;;;25.08;56.35
70198;BME280;57582;-34.876;138.628;2023-03-16T12:40:47;101050;;;25.09;56.37
70198;BME280;57582;-34.876;138.628;2023-03-16T12:43:50;101048;;;25.10;56.53
70198;BME280;57582;-34.876;138.628;2023-03-16T12:46:55;101051;;;25.08;56.67
70198;BME280;57582;-34.876;138.628;2023-03-16T12:49:45;101040;;;25.07;56.69
70198;BME280;57582;-34.876;138.628;2023-03-16T12:52:48;101042;;;25.09;56.51
70198;BME280;57582;-34.876;138.628;2023-03-16T12:55:45;101037;;;25.10;56.41
70198;BME280;57582;-34.876;138.628;2023-03-16T12:58:46;101048;;;25.11;56.34
70198;BME280;57582;-34.876;138.628;2023-03-16T13:01:50;101048;;;25.08;56.55
70198;BME280;57582;-34.876;138.628;2023-03-16T13:04:46;101044;;;25.06;56.46
70198;BME280;57582;-34.876;138.628;2023-03-16T13:07:47;101050;;;25.06;56.53
70198;BME280;57582;-34.876;138.628;2023-03-16T13:13:48;101045;;;24.87;56.39
70198;BME280;57582;-34.876;138.628;2023-03-16T13:16:45;101050;;;24.86;56.27
70198;BME280;57582;-34.876;138.628;2023-03-16T13:19:57;101054;;;24.87;56.11
70198;BME280;57582;-34.876;138.628;2023-03-16T13:22:47;101049;;;24.82;56.62
70198;BME280;57582;-34.876;138.628;2023-03-16T13:28:49;101057;;;24.84;57.14
70198;BME280;57582;-34.876;138.628;2023-03-16T13:31:45;101054;;;24.78;57.63
70198;BME280;57582;-34.876;138.628;2023-03-16T13:34:47;101056;;;24.71;58.15
70198;BME280;57582;-34.876;138.628;2023-03-16T13:37:45;101064;;;24.60;58.37
70198;BME280;57582;-34.876;138.628;2023-03-16T13:40:46;101059;;;24.59;58.50
70198;BME280;57582;-34.876;138.628;2023-03-16T13:43:45;101059;;;24.35;59.29
70198;BME280;57582;-34.876;138.628;2023-03-16T13:46:46;101060;;;24.31;60.03
70198;BME280;57582;-34.876;138.628;2023-03-16T13:49:46;101052;;;24.44;59.60
70198;BME280;57582;-34.876;138.628;2023-03-16T13:52:51;101061;;;24.65;59.42
70198;BME280;57582;-34.876;138.628;2023-03-16T13:55:45;101060;;;24.82;59.11
70198;BME280;57582;-34.876;138.628;2023-03-16T13:58:46;101059;;;24.93;58.58
70198;BME280;57582;-34.876;138.628;2023-03-16T14:01:45;101057;;;25.02;58.50
70198;BME280;57582;-34.876;138.628;2023-03-16T14:04:45;101055;;;25.09;58.34
70198;BME280;57582;-34.876;138.628;2023-03-16T14:07:46;101055;;;25.16;58.15
70198;BME280;57582;-34.876;138.628;2023-03-16T14:10:45;101050;;;25.14;58.11
70198;BME280;57582;-34.876;138.628;2023-03-16T14:13:51;101047;;;25.12;58.12
70198;BME280;57582;-34.876;138.628;2023-03-16T14:16:45;101046;;;25.14;58.08
70198;BME280;57582;-34.876;138.628;2023-03-16T14:19:47;101037;;;25.11;57.96
70198;BME280;57582;-34.876;138.628;2023-03-16T14:22:45;101039;;;25.06;58.08
70198;BME280;57582;-34.876;138.628;2023-03-16T14:25:46;101030;;;25.01;58.10
70198;BME280;57582;-34.876;138.628;2023-03-16T14:28:54;101035;;;24.74;58.88
70198;BME280;57582;-34.876;138.628;2023-03-16T14:31:45;101029;;;24.65;59.06
70198;BME280;57582;-34.876;138.628;2023-03-16T14:34:47;101035;;;24.47;59.19
70198;BME280;57582;-34.876;138.628;2023-03-16T14:37:45;101033;;;24.42;59.50
70198;BME280;57582;-34.876;138.628;2023-03-16T14:40:54;101040;;;24.43;59.41
70198;BME280;57582;-34.876;138.628;2023-03-16T14:43:46;101039;;;24.48;58.96
70198;BME280;57582;-34.876;138.628;2023-03-16T14:46:45;101033;;;24.52;58.43
70198;BME280;57582;-34.876;138.628;2023-03-16T14:49:46;101035;;;24.61;57.73
70198;BME280;57582;-34.876;138.628;2023-03-16T14:52:46;101031;;;24.65;57.43
70198;BME280;57582;-34.876;138.628;2023-03-16T14:55:45;101022;;;24.66;57.30
70198;BME280;57582;-34.876;138.628;2023-03-16T14:58:45;100994;;;24.52;57.26
70198;BME280;57582;-34.876;138.628;2023-03-16T15:01:46;101019;;;24.64;57.17
70198;BME280;57582;-34.876;138.628;2023-03-16T15:04:46;101021;;;24.70;57.53
70198;BME280;57582;-34.876;138.628;2023-03-16T15:07:45;101026;;;24.68;57.68
70198;BME280;57582;-34.876;138.628;2023-03-16T15:10:45;101025;;;24.68;58.08
70198;BME280;57582;-34.876;138.628;2023-03-16T15:13:46;101035;;;24.47;58.22
70198;BME280;57582;-34.876;138.628;2023-03-16T15:16:45;101028;;;24.46;58.31
70198;BME280;57582;-34.876;138.628;2023-03-16T15:19:45;101028;;;24.33;58.50
70198;BME280;57582;-34.876;138.628;2023-03-16T15:22:45;101026;;;24.32;58.47
70198;BME280;57582;-34.876;138.628;2023-03-16T15:25:46;101021;;;24.32;58.45
70198;BME280;57582;-34.876;138.628;2023-03-16T15:28:46;101020;;;24.31;58.47
70198;BME280;57582;-34.876;138.628;2023-03-16T15:31:45;101017;;;24.31;58.59
70198;BME280;57582;-34.876;138.628;2023-03-16T15:34:45;101007;;;24.30;58.62
70198;BME280;57582;-34.876;138.628;2023-03-16T15:37:46;101008;;;24.34;58.60
70198;BME280;57582;-34.876;138.628;2023-03-16T15:40:46;101017;;;24.36;58.49
70198;BME280;57582;-34.876;138.628;2023-03-16T15:43:45;101014;;;24.38;58.54
70198;BME280;57582;-34.876;138.628;2023-03-16T15:46:45;100997;;;24.37;58.55
70198;BME280;57582;-34.876;138.628;2023-03-16T15:49:45;101006;;;24.31;58.82
70198;BME280;57582;-34.876;138.628;2023-03-16T15:52:48;100991;;;24.27;58.93
70198;BME280;57582;-34.876;138.628;2023-03-16T15:55:45;100991;;;24.22;59.00
70198;BME280;57582;-34.876;138.628;2023-03-16T15:58:45;100988;;;24.12;59.12
70198;BME280;57582;-34.876;138.628;2023-03-16T16:01:46;100997;;;24.12;59.30
70198;BME280;57582;-34.876;138.628;2023-03-16T16:04:45;100987;;;24.07;59.35
70198;BME280;57582;-34.876;138.628;2023-03-16T16:07:45;100988;;;24.02;59.48
70198;BME280;57582;-34.876;138.628;2023-03-16T16:10:45;100989;;;23.92;60.01
70198;BME280;57582;-34.876;138.628;2023-03-16T16:13:45;100993;;;23.72;60.64
70198;BME280;57582;-34.876;138.628;2023-03-16T16:16:45;100995;;;23.76;60.60
70198;BME280;57582;-34.876;138.628;2023-03-16T16:19:45;100994;;;23.87;60.50
70198;BME280;57582;-34.876;138.628;2023-03-16T16:22:45;100996;;;23.96;60.40
70198;BME280;57582;-34.876;138.628;2023-03-16T16:25:46;100991;;;24.04;60.02
70198;BME280;57582;-34.876;138.628;2023-03-16T16:28:45;100992;;;24.00;60.15
70198;BME280;57582;-34.876;138.628;2023-03-16T16:31:45;100989;;;24.06;60.23
70198;BME280;57582;-34.876;138.628;2023-03-16T16:34:45;100996;;;24.14;60.27
70198;BME280;57582;-34.876;138.628;2023-03-16T16:37:46;100992;;;24.18;60.33
70198;BME280;57582;-34.876;138.628;2023-03-16T16:40:46;100968;;;24.07;60.32
70198;BME280;57582;-34.876;138.628;2023-03-16T16:43:45;100990;;;24.10;60.55
70198;BME280;57582;-34.876;138.628;2023-03-16T16:46:45;100998;;;24.08;60.71